Time;durP1;ratioP1;P1;durP2;ratioP2;P2;SDS_P1;SDS_P2;PMS_P1;PMS_P2;Temp;Humidity;BMP_temperature;BMP_pressure;BME280_temperature;BME280_humidity;BME280_pressure;Samples;Min_cycle;Max_cycle;Signal;HPM_P1;HPM_P2
2021/10/26 00:00:11;;;;;;;15.35;11.40;;;179.60;2252.80;;;;;;5078405;28;20031;-76
2021/10/26 00:02:38;;;;;;;17.23;10.23;;;179.50;2252.80;;;;;;5064836;28;20032;-75
2021/10/26 00:05:05;;;;;;;16.15;11.52;;;179.50;2252.80;;;;;;5081915;28;20029;-76
2021/10/26 00:07:31;;;;;;;17.88;11.57;;;179.40;2252.80;;;;;;5063239;28;20062;-76
2021/10/26 00:09:57;;;;;;;17.50;10.25;;;179.40;2252.80;;;;;;5069299;28;20476;-76
2021/10/26 00:12:22;;;;;;;19.30;9.90;;;179.40;2252.80;;;;;;5080093;28;20111;-76
2021/10/26 00:14:49;;;;;;;15.70;10.13;;;179.40;2252.80;;;;;;5081020;28;20025;-76
2021/10/26 00:17:15;;;;;;;13.85;9.68;;;179.40;2252.80;;;;;;5083298;28;20024;-76
2021/10/26 00:19:41;;;;;;;17.30;10.38;;;179.30;2252.80;;;;;;5071314;28;20036;-76
2021/10/26 00:22:07;;;;;;;17.95;10.55;;;179.30;2252.80;;;;;;5070985;28;20064;-76
2021/10/26 00:24:33;;;;;;;15.90;10.73;;;179.30;2252.80;;;;;;5072335;28;20025;-75
2021/10/26 00:27:00;;;;;;;17.48;10.70;;;179.30;2252.80;;;;;;5072959;28;20083;-76
2021/10/26 00:29:25;;;;;;;14.98;10.88;;;179.30;2252.80;;;;;;5072068;28;20066;-76
2021/10/26 00:31:51;;;;;;;20.67;11.23;;;179.30;2252.80;;;;;;5069233;28;20033;-76
2021/10/26 00:34:18;;;;;;;16.15;9.90;;;179.20;2252.80;;;;;;5072862;28;20029;-76
2021/10/26 00:36:44;;;;;;;18.90;11.90;;;154.50;2252.80;;;;;;5072981;28;20033;-75
2021/10/26 00:39:10;;;;;;;17.60;11.45;;;154.50;2252.80;;;;;;5072495;28;20137;-76
2021/10/26 00:41:36;;;;;;;19.70;11.35;;;154.50;2252.80;;;;;;5073948;28;20085;-75
2021/10/26 00:44:03;;;;;;;19.55;12.27;;;154.40;2252.80;;;;;;5081719;28;20032;-75
2021/10/26 00:46:32;;;;;;;17.35;11.05;;;154.40;2252.80;;;;;;5070672;28;20082;-76
2021/10/26 00:49:00;;;;;;;19.42;11.73;;;154.40;2252.80;;;;;;5072024;28;20016;-76
2021/10/26 00:51:26;;;;;;;17.85;11.27;;;154.30;2252.80;;;;;;5070142;28;20024;-76
2021/10/26 00:53:52;;;;;;;25.58;12.35;;;154.40;2252.80;;;;;;5071051;28;20024;-75
2021/10/26 00:56:19;;;;;;;21.75;10.88;;;154.40;2252.80;;;;;;5071652;28;20154;-76
2021/10/26 00:58:45;;;;;;;15.93;10.38;;;154.40;2252.80;;;;;;5071276;28;20027;-76
2021/10/26 01:01:11;;;;;;;16.42;10.48;;;154.40;2252.80;;;;;;5067191;28;20021;-76
2021/10/26 01:03:37;;;;;;;16.67;10.25;;;154.40;2252.80;;;;;;5071932;28;20032;-76
2021/10/26 01:06:03;;;;;;;14.40;9.30;;;154.50;2252.80;;;;;;5069712;28;20040;-75
2021/10/26 01:08:31;;;;;;;18.17;10.35;;;154.50;2252.80;;;;;;5071286;28;20047;-76
2021/10/26 01:10:57;;;;;;;18.15;9.75;;;154.50;2252.80;;;;;;5071088;28;20021;-75
2021/10/26 01:13:23;;;;;;;17.23;8.98;;;154.50;2252.80;;;;;;5072602;28;20037;-76
2021/10/26 01:15:50;;;;;;;16.30;9.65;;;179.20;2252.80;;;;;;5071602;28;20059;-75
2021/10/26 01:18:16;;;;;;;11.32;8.75;;;179.20;2252.80;;;;;;5055961;28;20079;-76
2021/10/26 01:20:43;;;;;;;14.73;8.55;;;179.20;2252.80;;;;;;5071035;28;20025;-76
2021/10/26 01:23:09;;;;;;;15.55;9.45;;;179.20;2252.80;;;;;;5057519;28;20025;-76
2021/10/26 01:25:35;;;;;;;11.75;8.57;;;179.30;2252.80;;;;;;5071838;28;20575;-75
2021/10/26 01:28:01;;;;;;;17.25;9.05;;;179.30;2252.80;;;;;;5058274;28;20021;-76
2021/10/26 01:30:32;;;;;;;13.60;9.63;;;179.30;2252.80;;;;;;5067222;28;20063;-76
2021/10/26 01:32:58;;;;;;;13.15;8.35;;;179.40;2252.80;;;;;;5072276;28;20027;-76
2021/10/26 01:35:24;;;;;;;21.50;10.75;;;179.40;2252.80;;;;;;5070927;28;20028;-76
2021/10/26 01:37:50;;;;;;;14.07;9.57;;;179.30;2252.80;;;;;;5070210;28;20074;-76
2021/10/26 01:40:16;;;;;;;13.00;9.10;;;179.30;2252.80;;;;;;5070816;28;20392;-77
2021/10/26 01:42:42;;;;;;;18.88;10.30;;;179.30;2252.80;;;;;;5072293;28;20029;-77
2021/10/26 01:45:09;;;;;;;19.40;12.35;;;179.30;2252.80;;;;;;5071666;28;20017;-76
2021/10/26 01:47:35;;;;;;;19.08;11.40;;;179.40;2252.80;;;;;;5071842;28;20032;-76
2021/10/26 01:50:01;;;;;;;17.70;11.38;;;179.30;2252.80;;;;;;5072233;28;20016;-76
2021/10/26 01:52:26;;;;;;;15.15;10.73;;;179.20;2252.80;;;;;;5069759;28;20479;-76
2021/10/26 01:54:52;;;;;;;16.30;9.55;;;179.20;2252.80;;;;;;5069267;28;20024;-76
2021/10/26 01:57:22;;;;;;;19.10;11.65;;;179.20;2252.80;;;;;;5071128;28;20035;-76
2021/10/26 01:59:48;;;;;;;19.20;11.30;;;154.50;2252.80;;;;;;5069094;28;20028;-76
2021/10/26 02:02:14;;;;;;;20.55;11.95;;;154.50;2252.80;;;;;;5068430;28;20495;-77
2021/10/26 02:04:40;;;;;;;28.50;14.15;;;154.50;2252.80;;;;;;5071878;28;20040;-77
2021/10/26 02:07:06;;;;;;;23.42;13.57;;;154.40;2252.80;;;;;;5070624;28;20028;-77
2021/10/26 02:09:32;;;;;;;23.30;13.45;;;154.30;2252.80;;;;;;5072848;28;20039;-77
2021/10/26 02:11:59;;;;;;;20.85;13.38;;;154.30;2252.80;;;;;;5072081;28;20087;-76
2021/10/26 02:14:25;;;;;;;22.02;13.48;;;154.20;2252.80;;;;;;5088033;28;20024;-77
2021/10/26 02:16:50;;;;;;;30.00;15.02;;;154.20;2252.80;;;;;;5070581;28;20024;-76
2021/10/26 02:19:16;;;;;;;30.40;15.95;;;154.20;2252.80;;;;;;5070931;28;20549;-76
2021/10/26 02:21:42;;;;;;;27.38;14.32;;;154.30;2252.80;;;;;;5070340;28;20089;-76
2021/10/26 02:24:08;;;;;;;22.05;14.88;;;154.20;2252.80;;;;;;5071006;28;20494;-76
2021/10/26 02:26:34;;;;;;;23.83;15.55;;;154.20;2252.80;;;;;;5071762;28;20060;-76
2021/10/26 02:29:01;;;;;;;24.10;14.52;;;154.20;2252.80;;;;;;5070559;28;20024;-76
2021/10/26 02:31:27;;;;;;;21.70;13.13;;;154.20;2252.80;;;;;;5071100;28;20032;-76
2021/10/26 02:33:52;;;;;;;20.27;13.98;;;154.20;2252.80;;;;;;5070351;28;20474;-77
2021/10/26 02:36:18;;;;;;;20.73;12.80;;;154.20;2252.80;;;;;;5072032;28;20491;-77
2021/10/26 02:38:44;;;;;;;18.88;11.75;;;154.20;2252.80;;;;;;5069960;28;20032;-77
2021/10/26 02:41:10;;;;;;;15.88;11.52;;;154.20;2252.80;;;;;;5070731;28;20029;-76
2021/10/26 02:43:36;;;;;;;19.63;11.82;;;154.20;2252.80;;;;;;5071433;28;20025;-76
2021/10/26 02:46:02;;;;;;;21.05;12.45;;;154.20;2252.80;;;;;;5070730;28;20035;-77
2021/10/26 02:48:29;;;;;;;19.13;11.85;;;154.10;2252.80;;;;;;5071602;28;20108;-76
2021/10/26 02:50:55;;;;;;;23.58;13.35;;;154.10;2252.80;;;;;;5070316;28;20035;-76
2021/10/26 02:53:21;;;;;;;15.43;10.23;;;154.10;2252.80;;;;;;5065765;28;20036;-76
2021/10/26 02:55:47;;;;;;;15.90;10.30;;;154.10;2252.80;;;;;;5065030;28;20162;-77
2021/10/26 02:58:13;;;;;;;18.60;10.40;;;154.10;2252.80;;;;;;5065708;28;20025;-76
2021/10/26 03:00:39;;;;;;;14.98;9.60;;;154.10;2252.80;;;;;;5065852;28;20360;-75
2021/10/26 03:03:05;;;;;;;15.70;10.10;;;154.20;2252.80;;;;;;5063023;28;20769;-75
2021/10/26 03:05:30;;;;;;;19.48;10.38;;;154.20;2252.80;;;;;;5061914;28;20119;-74
2021/10/26 03:07:56;;;;;;;13.45;10.07;;;154.20;2252.80;;;;;;5064655;28;20048;-76
2021/10/26 03:10:22;;;;;;;15.00;8.82;;;154.20;2252.80;;;;;;5072850;28;20376;-76
2021/10/26 03:12:48;;;;;;;13.95;9.75;;;154.20;2252.80;;;;;;5070401;28;20525;-76
2021/10/26 03:15:13;;;;;;;14.50;9.30;;;154.20;2252.80;;;;;;5075026;28;20031;-76
2021/10/26 03:17:40;;;;;;;18.95;10.75;;;154.20;2252.80;;;;;;5061366;28;20035;-76
2021/10/26 03:20:07;;;;;;;18.50;10.50;;;154.30;2252.80;;;;;;5068987;28;20146;-76
2021/10/26 03:22:33;;;;;;;17.15;11.07;;;154.20;2252.80;;;;;;5062815;28;20060;-76
2021/10/26 03:24:59;;;;;;;17.42;10.25;;;154.30;2252.80;;;;;;5078362;28;20036;-77
2021/10/26 03:27:28;;;;;;;15.30;10.32;;;154.30;2252.80;;;;;;5059969;28;20052;-74
2021/10/26 03:29:53;;;;;;;16.98;10.13;;;154.30;2252.80;;;;;;5071414;28;20025;-74
2021/10/26 03:32:19;;;;;;;16.63;10.57;;;154.30;2252.80;;;;;;5070642;28;20039;-74
2021/10/26 03:34:45;;;;;;;17.83;11.48;;;154.30;2252.80;;;;;;5072420;28;20020;-76
2021/10/26 03:37:11;;;;;;;17.65;11.57;;;154.20;2252.80;;;;;;5074093;28;20383;-76
2021/10/26 03:39:37;;;;;;;21.55;12.57;;;154.20;2252.80;;;;;;5090254;28;20037;-76
2021/10/26 03:42:03;;;;;;;21.13;14.05;;;154.10;2252.80;;;;;;5070169;28;20449;-76
2021/10/26 03:44:29;;;;;;;27.25;14.77;;;154.10;2252.80;;;;;;5073058;28;20430;-76
2021/10/26 03:46:55;;;;;;;21.65;11.93;;;154.10;2252.80;;;;;;5072574;28;20478;-76
2021/10/26 03:49:21;;;;;;;19.55;12.63;;;154.00;2252.80;;;;;;5071764;28;20055;-76
2021/10/26 03:51:47;;;;;;;21.80;13.20;;;154.00;2252.80;;;;;;5070616;28;20031;-76
2021/10/26 03:54:13;;;;;;;17.65;11.40;;;154.00;2252.80;;;;;;5073096;28;20024;-76
2021/10/26 03:56:40;;;;;;;19.70;12.05;;;154.10;2252.80;;;;;;5067139;28;20029;-76
2021/10/26 03:59:06;;;;;;;19.50;13.52;;;154.20;2252.80;;;;;;5070021;28;20039;-76
2021/10/26 04:01:33;;;;;;;22.65;13.15;;;154.00;2252.80;;;;;;5071164;28;20394;-76
2021/10/26 04:03:59;;;;;;;18.88;12.43;;;154.00;2252.80;;;;;;5062553;28;20068;-76
2021/10/26 04:06:27;;;;;;;17.83;12.60;;;154.00;2252.80;;;;;;5058865;28;20047;-75
2021/10/26 04:09:02;;;;;;;18.50;12.20;;;154.00;2252.80;;;;;;5072986;28;20035;-76
2021/10/26 04:11:29;;;;;;;23.05;12.82;;;154.10;2252.80;;;;;;5071011;28;20072;-76
2021/10/26 04:13:55;;;;;;;19.67;11.27;;;154.10;2252.80;;;;;;5073005;28;20016;-76
2021/10/26 04:16:21;;;;;;;17.92;10.75;;;154.10;2252.80;;;;;;5072564;28;20031;-76
2021/10/26 04:18:48;;;;;;;21.70;10.90;;;154.20;2252.80;;;;;;5089524;28;20016;-76
2021/10/26 04:21:15;;;;;;;16.25;10.23;;;154.20;2252.80;;;;;;5072407;28;20495;-76
2021/10/26 04:23:40;;;;;;;18.05;10.98;;;154.30;2252.80;;;;;;5073934;28;20032;-75
2021/10/26 04:26:07;;;;;;;16.23;10.07;;;154.40;2252.80;;;;;;5073214;28;20048;-76
2021/10/26 04:28:34;;;;;;;17.58;9.95;;;154.40;2252.80;;;;;;5074098;28;20021;-76
2021/10/26 04:31:02;;;;;;;19.35;12.05;;;154.40;2252.80;;;;;;5072208;28;20035;-75
2021/10/26 04:33:29;;;;;;;19.80;12.23;;;154.40;2252.80;;;;;;5072098;28;20052;-76
2021/10/26 04:35:56;;;;;;;22.92;12.00;;;154.40;2252.80;;;;;;5088615;28;20032;-76
2021/10/26 04:38:22;;;;;;;20.90;13.48;;;154.40;2252.80;;;;;;5073306;28;20032;-76
2021/10/26 04:40:49;;;;;;;26.40;15.85;;;154.40;2252.80;;;;;;5074559;28;20028;-76
2021/10/26 04:43:17;;;;;;;24.10;12.25;;;154.40;2252.80;;;;;;5088634;28;20103;-76
2021/10/26 04:45:43;;;;;;;17.75;10.65;;;154.40;2252.80;;;;;;5073463;28;20495;-76
2021/10/26 04:48:16;;;;;;;19.13;10.25;;;154.30;2252.80;;;;;;5073205;28;20410;-76
2021/10/26 04:50:43;;;;;;;16.42;10.10;;;154.20;2252.80;;;;;;5073476;28;20023;-76
2021/10/26 04:53:09;;;;;;;20.80;10.40;;;154.20;2252.80;;;;;;5073375;28;20017;-76
2021/10/26 04:55:35;;;;;;;20.83;12.60;;;154.20;2252.80;;;;;;5072956;28;20028;-74
2021/10/26 04:58:01;;;;;;;23.42;11.43;;;154.20;2252.80;;;;;;5073026;28;20024;-76
2021/10/26 05:00:29;;;;;;;17.73;11.48;;;154.20;2252.80;;;;;;5078561;28;20033;-76
2021/10/26 05:02:55;;;;;;;15.43;10.73;;;154.20;2252.80;;;;;;5093324;28;20025;-76
2021/10/26 05:05:21;;;;;;;19.63;11.85;;;154.20;2252.80;;;;;;5093685;28;20028;-76
2021/10/26 05:07:47;;;;;;;20.52;11.80;;;154.20;2252.80;;;;;;5078546;28;20028;-76
2021/10/26 05:10:13;;;;;;;21.27;12.85;;;154.30;2252.80;;;;;;5071192;28;20047;-76
2021/10/26 05:12:39;;;;;;;25.70;14.55;;;154.20;2252.80;;;;;;5073703;28;20017;-77
2021/10/26 05:15:05;;;;;;;19.60;13.77;;;154.20;2252.80;;;;;;5071894;28;20032;-76
2021/10/26 05:17:31;;;;;;;20.67;12.40;;;154.20;2252.80;;;;;;5072210;28;20033;-75
2021/10/26 05:19:58;;;;;;;16.40;12.20;;;154.30;2252.80;;;;;;5066042;28;20060;-75
2021/10/26 05:22:26;;;;;;;16.63;11.40;;;154.30;2252.80;;;;;;5072024;28;20122;-75
2021/10/26 05:24:52;;;;;;;18.60;11.88;;;154.30;2252.80;;;;;;5070533;28;20075;-77
2021/10/26 05:27:19;;;;;;;19.08;12.73;;;154.40;2252.80;;;;;;5071311;28;20081;-76
2021/10/26 05:29:46;;;;;;;19.23;13.18;;;154.30;2252.80;;;;;;5072017;28;20423;-76
2021/10/26 05:32:12;;;;;;;19.17;11.00;;;154.30;2252.80;;;;;;5071915;28;20029;-76
2021/10/26 05:34:39;;;;;;;16.83;11.85;;;154.30;2252.80;;;;;;5087032;28;20037;-76
2021/10/26 05:37:06;;;;;;;19.25;12.75;;;154.30;2252.80;;;;;;5071946;28;20116;-75
2021/10/26 05:39:33;;;;;;;22.73;13.45;;;154.30;2252.80;;;;;;5070774;28;20028;-75
2021/10/26 05:41:59;;;;;;;25.08;14.02;;;154.30;2252.80;;;;;;5087688;28;20085;-76
2021/10/26 05:44:25;;;;;;;37.47;21.83;;;154.30;2252.80;;;;;;5070984;28;20079;-76
2021/10/26 05:46:51;;;;;;;50.05;27.55;;;154.40;2252.80;;;;;;5079733;28;20033;-75
2021/10/26 05:49:18;;;;;;;57.20;36.25;;;154.40;2252.80;;;;;;5070494;28;20381;-74
2021/10/26 05:51:43;;;;;;;45.30;26.17;;;154.40;2252.80;;;;;;5087824;28;20052;-75
2021/10/26 05:54:09;;;;;;;37.42;21.60;;;154.30;2252.80;;;;;;5070617;28;20059;-74
2021/10/26 05:56:35;;;;;;;35.45;19.38;;;154.30;2252.80;;;;;;5080864;28;20028;-74
2021/10/26 05:59:01;;;;;;;28.10;15.98;;;154.40;2252.80;;;;;;5073390;28;20024;-74
2021/10/26 06:01:27;;;;;;;22.23;13.07;;;154.40;2252.80;;;;;;5073134;28;20047;-75
2021/10/26 06:03:53;;;;;;;21.15;14.32;;;154.40;2252.80;;;;;;5070158;28;20047;-75
2021/10/26 06:06:19;;;;;;;22.08;12.90;;;154.40;2252.80;;;;;;5056362;28;20044;-75
2021/10/26 06:08:46;;;;;;;24.48;14.20;;;154.40;2252.80;;;;;;5075617;28;20379;-75
2021/10/26 06:11:13;;;;;;;25.80;15.65;;;154.50;2252.80;;;;;;5070484;28;20115;-75
2021/10/26 06:13:44;;;;;;;29.42;19.10;;;154.50;2252.80;;;;;;5071902;28;20020;-75
2021/10/26 06:16:11;;;;;;;30.30;17.50;;;154.50;2252.80;;;;;;5068930;28;20024;-75
2021/10/26 06:18:37;;;;;;;27.38;20.10;;;154.50;2252.80;;;;;;5067160;28;20116;-75
2021/10/26 06:21:03;;;;;;;29.35;18.70;;;179.20;2252.80;;;;;;5069108;28;20725;-75
2021/10/26 06:23:30;;;;;;;27.08;15.77;;;179.30;2252.80;;;;;;5070801;28;20404;-75
2021/10/26 06:25:59;;;;;;;22.85;14.10;;;179.30;2252.80;;;;;;5069560;28;20080;-75
2021/10/26 06:28:25;;;;;;;23.40;15.48;;;179.40;2252.80;;;;;;5071283;28;20033;-75
2021/10/26 06:30:51;;;;;;;26.63;18.27;;;179.50;2252.80;;;;;;5070387;28;20602;-75
2021/10/26 06:33:17;;;;;;;22.80;17.05;;;179.50;2252.80;;;;;;5071278;28;20091;-75
2021/10/26 06:35:42;;;;;;;30.10;20.20;;;179.60;2252.80;;;;;;5087279;28;20120;-75
2021/10/26 06:38:09;;;;;;;24.55;15.63;;;179.70;2252.80;;;;;;5071397;28;20856;-75
2021/10/26 06:40:35;;;;;;;23.42;12.95;;;179.90;2252.80;;;;;;5092595;28;20066;-76
2021/10/26 06:43:01;;;;;;;21.42;14.27;;;179.90;2252.80;;;;;;5086590;28;20017;-75
2021/10/26 06:45:27;;;;;;;24.63;15.45;;;180.00;2252.80;;;;;;5070219;28;20044;-75
2021/10/26 06:47:53;;;;;;;20.80;13.95;;;180.00;2252.80;;;;;;5070614;28;20490;-75
2021/10/26 06:50:19;;;;;;;21.80;14.02;;;204.80;2252.80;;;;;;5069988;28;20017;-75
2021/10/26 06:52:45;;;;;;;26.88;14.20;;;204.90;2252.80;;;;;;5070355;28;20467;-75
2021/10/26 06:55:16;;;;;;;19.30;13.25;;;204.90;2252.80;;;;;;5070197;28;20021;-75
2021/10/26 06:57:45;;;;;;;16.02;11.10;;;204.90;2252.80;;;;;;5063508;28;20079;-75
2021/10/26 07:00:12;;;;;;;17.42;11.82;;;205.10;2252.80;;;;;;5071143;28;20020;-75
2021/10/26 07:03:02;;;;;;;20.48;13.02;;;205.20;2252.80;;;;;;5087075;28;20475;-75
2021/10/26 07:05:28;;;;;;;19.00;11.65;;;205.30;2252.80;;;;;;5071650;28;20036;-75
2021/10/26 07:07:54;;;;;;;24.77;13.30;;;205.40;2252.80;;;;;;5086637;28;20031;-76
2021/10/26 07:10:20;;;;;;;20.90;13.27;;;205.50;2252.80;;;;;;5073505;28;20127;-75
2021/10/26 07:12:46;;;;;;;21.13;12.80;;;205.70;2252.80;;;;;;5059068;28;20028;-75
2021/10/26 07:15:14;;;;;;;19.38;13.63;;;230.40;2252.80;;;;;;5071007;28;20024;-78
2021/10/26 07:17:41;;;;;;;14.88;11.38;;;230.50;2252.80;;;;;;5077209;28;20028;-74
2021/10/26 07:20:09;;;;;;;18.30;11.10;;;230.60;2252.80;;;;;;5074546;28;20032;-76
2021/10/26 07:22:36;;;;;;;18.70;12.95;;;230.70;2252.80;;;;;;5068872;28;20472;-75
2021/10/26 07:25:06;;;;;;;24.35;13.60;;;230.90;2252.80;;;;;;5066170;28;20029;-76
2021/10/26 07:27:32;;;;;;;17.45;12.25;;;231.00;2252.80;;;;;;5074468;28;20039;-75
2021/10/26 07:29:59;;;;;;;20.65;12.65;;;231.10;2252.80;;;;;;5073089;28;20078;-75
2021/10/26 07:32:25;;;;;;;18.23;11.65;;;231.20;2252.80;;;;;;5077125;28;20082;-77
2021/10/26 07:34:51;;;;;;;16.63;10.82;;;256.00;2252.80;;;;;;5089981;28;20448;-75
2021/10/26 07:37:22;;;;;;;17.48;11.80;;;256.10;2252.80;;;;;;5073335;28;20056;-75
2021/10/26 07:39:49;;;;;;;14.63;10.27;;;256.30;2252.80;;;;;;5057555;28;20029;-74
2021/10/26 07:42:17;;;;;;;19.35;10.43;;;256.50;2252.80;;;;;;5071591;28;20020;-75
2021/10/26 07:44:44;;;;;;;16.85;10.43;;;256.70;2252.80;;;;;;5070079;28;20033;-75
2021/10/26 07:47:10;;;;;;;19.58;11.70;;;256.90;2252.80;;;;;;5074086;28;20476;-75
2021/10/26 07:49:36;;;;;;;18.77;10.90;;;281.80;2278.40;;;;;;5070264;28;20052;-75
2021/10/26 07:52:04;;;;;;;15.85;11.95;;;282.10;2278.40;;;;;;5070005;28;20485;-75
2021/10/26 07:54:30;;;;;;;16.73;10.60;;;282.40;2278.40;;;;;;5072662;28;20430;-75
2021/10/26 07:56:56;;;;;;;13.85;10.43;;;307.30;2304.00;;;;;;5073534;28;20028;-76
2021/10/26 07:59:21;;;;;;;18.33;10.20;;;307.50;2304.00;;;;;;5089977;28;20078;-75
2021/10/26 08:01:48;;;;;;;15.90;11.07;;;307.70;2304.00;;;;;;5071574;28;20036;-74
2021/10/26 08:04:15;;;;;;;17.65;11.25;;;307.90;2304.00;;;;;;5074091;28;20067;-75
2021/10/26 08:06:43;;;;;;;18.27;11.15;;;332.80;2329.60;;;;;;5083377;28;20029;-75
2021/10/26 08:09:10;;;;;;;20.50;11.00;;;332.80;2329.60;;;;;;5071155;28;20070;-75
2021/10/26 08:11:36;;;;;;;16.98;11.65;;;333.00;2329.60;;;;;;5073116;28;20036;-75
2021/10/26 08:14:06;;;;;;;19.48;11.65;;;333.30;2329.60;;;;;;5077252;28;20066;-75
2021/10/26 08:16:32;;;;;;;17.42;13.43;;;333.30;2329.60;;;;;;5060993;28;20032;-75
2021/10/26 08:19:00;;;;;;;24.05;13.88;;;333.60;2329.60;;;;;;5072007;28;20024;-75
2021/10/26 08:21:27;;;;;;;19.35;11.07;;;358.50;2329.60;;;;;;5072520;28;20040;-75
2021/10/26 08:23:53;;;;;;;17.08;9.82;;;358.60;2329.60;;;;;;5071776;28;20028;-76
2021/10/26 08:26:35;;;;;;;17.42;11.20;;;358.90;2329.60;;;;;;5073323;28;20522;-77
2021/10/26 08:29:31;;;;;;;19.48;9.82;;;358.90;2329.60;;;;;;5072383;28;20021;-76
2021/10/26 08:34:46;;;;;;;17.17;12.48;;;359.30;2329.60;;;;;;5074138;28;20563;-76
2021/10/26 08:37:13;;;;;;;17.33;10.95;;;384.20;2329.60;;;;;;5072036;28;20028;-76
2021/10/26 08:39:41;;;;;;;19.15;11.43;;;384.10;2329.60;;;;;;5071244;28;20491;-77
2021/10/26 08:42:13;;;;;;;16.77;10.18;;;384.00;2329.60;;;;;;5070369;28;20070;-75
2021/10/26 08:44:40;;;;;;;17.85;11.07;;;384.40;2329.60;;;;;;5072063;28;20025;-77
2021/10/26 08:47:07;;;;;;;17.90;10.88;;;384.60;2329.60;;;;;;5068926;28;20028;-76
2021/10/26 08:49:33;;;;;;;14.52;10.00;;;384.80;2329.60;;;;;;5088024;28;20024;-75
2021/10/26 08:52:01;;;;;;;14.77;10.40;;;409.60;2355.20;;;;;;5070466;28;20095;-75
2021/10/26 08:54:27;;;;;;;16.25;10.07;;;409.80;2355.20;;;;;;5067832;28;20448;-75
2021/10/26 08:56:53;;;;;;;20.05;10.18;;;409.70;2355.20;;;;;;5072112;28;20037;-74
2021/10/26 08:59:21;;;;;;;18.05;9.88;;;410.00;2355.20;;;;;;5072874;28;20111;-74
2021/10/26 09:01:48;;;;;;;15.50;10.60;;;410.10;2355.20;;;;;;5071222;28;20027;-74
2021/10/26 09:04:13;;;;;;;12.70;8.02;;;410.40;2355.20;;;;;;5068382;28;20403;-74
2021/10/26 09:07:04;;;;;;;12.80;8.27;;;410.50;2355.20;;;;;;5072394;28;20028;-74
2021/10/26 09:09:32;;;;;;;14.85;9.90;;;435.40;2355.20;;;;;;5069697;28;20067;-72
2021/10/26 09:17:32;;;;;;;20.45;10.77;;;436.10;2329.60;;;;;;5069567;28;20035;-71
2021/10/26 09:19:59;;;;;;;15.57;7.97;;;460.80;2329.60;;;;;;5071756;28;20039;-71
2021/10/26 09:22:26;;;;;;;25.05;11.68;;;460.90;2304.00;;;;;;5070328;28;20599;-71
2021/10/26 09:24:58;;;;;;;16.77;8.77;;;436.10;2278.40;;;;;;5067064;28;20123;-72
2021/10/26 09:27:26;;;;;;;14.70;7.82;;;461.00;2252.80;;;;;;5071775;28;20090;-72
2021/10/26 09:29:59;;;;;;;14.77;10.93;;;461.00;2252.80;;;;;;5073692;28;20016;-72
2021/10/26 09:32:32;;;;;;;10.77;7.60;;;461.20;2201.60;;;;;;5071642;28;20049;-72
2021/10/26 09:35:07;;;;;;;19.00;10.48;;;461.20;2176.00;;;;;;5068545;28;20020;-72
2021/10/26 09:37:41;;;;;;;17.38;9.55;;;461.30;2150.40;;;;;;5071060;28;20024;-72
2021/10/26 09:40:09;;;;;;;15.40;10.07;;;461.60;2099.20;;;;;;5062603;28;20020;-73
2021/10/26 09:42:48;;;;;;;22.00;12.80;;;461.70;2099.20;;;;;;5069928;28;20036;-72
2021/10/26 09:45:26;;;;;;;17.20;7.93;;;486.40;2073.60;;;;;;5071053;28;20079;-72
2021/10/26 09:47:59;;;;;;;18.48;8.00;;;486.70;2073.60;;;;;;5071448;28;20020;-72
2021/10/26 09:50:35;;;;;;;19.25;9.23;;;486.70;1971.20;;;;;;5071824;28;20415;-72
2021/10/26 09:53:10;;;;;;;12.07;8.18;;;486.60;1945.60;;;;;;5067894;28;20121;-72
2021/10/26 09:55:38;;;;;;;13.93;9.00;;;486.50;1945.60;;;;;;5070852;28;20056;-72
2021/10/26 09:58:09;;;;;;;10.45;7.35;;;486.70;1945.60;;;;;;5071209;28;20387;-71
2021/10/26 10:00:38;;;;;;;13.50;8.18;;;487.00;1945.60;;;;;;5070587;28;20024;-71
2021/10/26 10:03:05;;;;;;;13.77;8.90;;;487.30;1920.00;;;;;;5070158;28;20372;-74
2021/10/26 10:05:36;;;;;;;9.95;7.03;;;512.00;1868.80;;;;;;5065868;28;20446;-74
2021/10/26 10:08:27;;;;;;;14.25;7.65;;;512.20;1843.20;;;;;;5063467;28;20025;-74
2021/10/26 10:11:17;;;;;;;12.90;6.28;;;512.60;1817.60;;;;;;5071966;28;20380;-75
2021/10/26 10:13:56;;;;;;;11.63;6.90;;;512.60;1792.00;;;;;;5061120;28;20025;-74
2021/10/26 10:16:27;;;;;;;11.63;7.57;;;512.60;1766.40;;;;;;5071957;28;20040;-74
2021/10/26 10:18:53;;;;;;;14.48;7.80;;;512.70;1740.80;;;;;;5067412;28;20063;-74
2021/10/26 10:21:23;;;;;;;9.80;7.53;;;512.80;1740.80;;;;;;5071919;28;20111;-74
2021/10/26 10:23:50;;;;;;;15.82;10.10;;;512.80;1715.20;;;;;;5065516;28;20064;-75
2021/10/26 10:26:18;;;;;;;11.50;6.68;;;537.60;1740.80;;;;;;5078682;28;20090;-74
2021/10/26 10:28:47;;;;;;;12.35;7.35;;;512.80;1689.60;;;;;;5072555;28;20024;-74
2021/10/26 10:31:16;;;;;;;15.18;6.70;;;537.70;1715.20;;;;;;5071299;28;20025;-75
2021/10/26 10:33:49;;;;;;;8.60;5.63;;;537.80;1689.60;;;;;;5070771;28;20089;-75
2021/10/26 10:36:17;;;;;;;10.20;6.63;;;512.70;1689.60;;;;;;5088918;28;20067;-72
2021/10/26 10:38:43;;;;;;;11.15;7.20;;;537.90;1689.60;;;;;;5071263;28;20050;-73
2021/10/26 10:41:28;;;;;;;12.95;8.57;;;538.00;1664.00;;;;;;5070773;28;20142;-73
2021/10/26 10:44:00;;;;;;;11.32;7.07;;;537.80;1664.00;;;;;;5070039;28;20025;-73
2021/10/26 10:46:40;;;;;;;9.40;6.40;;;537.60;1689.60;;;;;;5076650;28;20040;-73
2021/10/26 10:49:35;;;;;;;9.77;6.50;;;537.90;1664.00;;;;;;5067465;28;20142;-74
2021/10/26 10:52:18;;;;;;;16.17;9.18;;;538.20;1664.00;;;;;;5074986;28;20040;-74
2021/10/26 10:54:50;;;;;;;18.40;8.30;;;563.30;1638.40;;;;;;5073146;28;20021;-74
2021/10/26 10:57:19;;;;;;;13.57;8.48;;;563.20;1638.40;;;;;;5072364;28;20082;-74
2021/10/26 10:59:47;;;;;;;18.55;6.25;;;538.40;1612.80;;;;;;5073179;28;20476;-74
2021/10/26 11:02:27;;;;;;;13.48;8.05;;;538.40;1612.80;;;;;;5072591;28;20368;-74
2021/10/26 11:04:54;;;;;;;15.48;7.65;;;563.50;1612.80;;;;;;5067531;28;20021;-74
2021/10/26 11:07:42;;;;;;;12.75;7.63;;;563.50;1587.20;;;;;;5073779;28;20086;-74
2021/10/26 11:10:13;;;;;;;15.32;7.38;;;563.60;1587.20;;;;;;5086363;28;20092;-74
2021/10/26 11:12:42;;;;;;;9.13;6.15;;;563.80;1561.60;;;;;;5072252;28;20029;-74
2021/10/26 11:15:16;;;;;;;14.50;7.55;;;563.80;1561.60;;;;;;5071455;28;20487;-74
2021/10/26 11:17:43;;;;;;;14.57;7.70;;;563.70;1536.00;;;;;;5071767;28;20036;-74
2021/10/26 11:20:36;;;;;;;12.02;6.15;;;563.50;1561.60;;;;;;5071633;28;20078;-74
2021/10/26 11:23:08;;;;;;;22.45;8.38;;;563.60;1536.00;;;;;;5072528;28;20059;-74
2021/10/26 11:25:36;;;;;;;13.32;7.38;;;588.80;1510.40;;;;;;5068370;28;20071;-74
2021/10/26 11:28:28;;;;;;;10.70;7.65;;;564.10;1484.80;;;;;;5073275;28;20112;-74
2021/10/26 11:30:57;;;;;;;10.02;6.93;;;588.80;1484.80;;;;;;5071549;28;20021;-74
2021/10/26 11:33:23;;;;;;;8.48;6.13;;;564.10;1484.80;;;;;;5074001;28;20888;-74
2021/10/26 11:36:30;;;;;;;10.75;6.80;;;564.10;1484.80;;;;;;5073609;28;20571;-74
2021/10/26 11:38:52;;;;;;;13.68;6.38;;;563.70;1484.80;;;;;;5060304;28;20102;-74
2021/10/26 11:41:24;;;;;;;13.02;7.13;;;588.80;1459.20;;;;;;5071280;28;20017;-74
2021/10/26 11:44:01;;;;;;;12.60;6.50;;;563.90;1459.20;;;;;;5071365;28;20107;-74
2021/10/26 11:46:34;;;;;;;10.77;7.25;;;564.10;1459.20;;;;;;5072233;28;20033;-75
2021/10/26 11:49:06;;;;;;;9.60;5.45;;;563.90;1459.20;;;;;;5071622;28;20016;-75
2021/10/26 11:51:41;;;;;;;7.95;5.50;;;564.10;1459.20;;;;;;5068047;28;20024;-75
2021/10/26 11:54:48;;;;;;;11.55;6.47;;;588.80;1459.20;;;;;;5072275;28;20104;-74
2021/10/26 11:57:20;;;;;;;10.15;8.30;;;588.80;1459.20;;;;;;4985512;28;20050;-75
2021/10/26 11:59:46;;;;;;;14.93;8.02;;;589.40;1433.60;;;;;;5007930;28;20038;-75
2021/10/26 12:02:15;;;;;;;11.65;6.60;;;589.70;1408.00;;;;;;5001645;28;20028;-75
2021/10/26 12:04:57;;;;;;;11.25;7.60;;;589.70;1408.00;;;;;;4995812;28;20037;-75
2021/10/26 12:07:28;;;;;;;11.15;6.38;;;589.60;1408.00;;;;;;4995221;28;20081;-76
2021/10/26 12:09:59;;;;;;;12.90;7.78;;;589.30;1408.00;;;;;;4995380;28;20485;-75
2021/10/26 12:12:28;;;;;;;13.35;7.05;;;589.10;1408.00;;;;;;5005331;28;20052;-75
2021/10/26 12:15:01;;;;;;;14.75;6.45;;;588.90;1408.00;;;;;;5011666;28;20080;-75